US Aviators Van Nuys Flight School Los Angeles Pilot school at Van Nuys Simulator Flight Training Profesional Pilot Instruction Learn to Fly

U.S. Aviators

Learn to fly here! (818) 779-2105

Weather at Van Nuys Airport

Observed:Sat Apr 18, 08:51 PDT
Age:47 min ago
Wind:Calm
Visibility:10 miles
Clouds:Clear skies
Temperature:66°F (19°C)
Dewpoint:30°F (-1°C)
Humidity:26%
Barometer:1017 hPa (30.02 in Hg)

METAR

KVNY 181551Z 00000KT 10SM CLR 19/M01 A3002 RMK AO2 SLP158 T01941006